Time;durP1;ratioP1;P1;durP2;ratioP2;P2;SDS_P1;SDS_P2;PMS_P1;PMS_P2;Temp;Humidity;BMP_temperature;BMP_pressure;BME280_temperature;BME280_humidity;BME280_pressure;Samples;Min_cycle;Max_cycle;Signal;HPM_P1;HPM_P2
2022/01/21 00:00:31;;;;;;;0.28;0.10;;;;;;;-148.16;100.00;58328.31;5072475;28;20051;-60
2022/01/21 00:03:17;;;;;;;1.10;0.30;;;;;;;-148.16;100.00;58328.31;5072157;28;20047;-60
2022/01/21 00:06:06;;;;;;;1.90;0.50;;;;;;;-148.16;100.00;58328.31;5072185;28;20077;-59
2022/01/21 00:08:52;;;;;;;0.13;0.10;;;;;;;-148.16;100.00;58328.31;5072410;28;20051;-62
2022/01/21 00:11:40;;;;;;;0.43;0.32;;;;;;;-148.16;100.00;58328.31;5071392;28;20391;-60
2022/01/21 00:14:26;;;;;;;0.32;0.28;;;;;;;-148.16;100.00;58328.31;5085788;28;20475;-61
2022/01/21 00:17:12;;;;;;;0.85;0.13;;;;;;;-148.16;100.00;58328.31;5071146;28;20055;-59
2022/01/21 00:32:15;;;;;;;0.75;0.20;;;;;;;-148.16;100.00;58328.31;5072149;28;20048;-59
2022/01/21 00:35:01;;;;;;;2.25;0.20;;;;;;;-148.16;100.00;58328.31;5071685;28;20120;-58
2022/01/21 00:37:49;;;;;;;0.20;0.10;;;;;;;-148.16;100.00;58328.31;5072043;28;20052;-59
2022/01/21 00:40:35;;;;;;;1.70;0.10;;;;;;;-148.16;100.00;58328.31;5077648;28;20052;-60
2022/01/21 00:43:30;;;;;;;0.55;0.20;;;;;;;-148.16;100.00;58328.31;5072237;28;20056;-59
2022/01/21 00:46:16;;;;;;;0.80;0.20;;;;;;;-148.16;100.00;58328.31;5085150;28;20049;-59
2022/01/21 00:49:02;;;;;;;0.68;0.20;;;;;;;-148.16;100.00;58328.31;5071759;28;20045;-58
2022/01/21 00:51:48;;;;;;;0.30;0.20;;;;;;;-148.16;100.00;58328.31;5081304;28;20426;-59
2022/01/21 00:54:34;;;;;;;1.30;0.38;;;;;;;-148.16;100.00;58328.31;5091924;28;20138;-59
2022/01/21 00:57:20;;;;;;;1.52;0.40;;;;;;;-148.16;100.00;58328.31;5092173;28;20060;-59
2022/01/21 01:00:10;;;;;;;0.73;0.28;;;;;;;-148.16;100.00;58328.31;5091297;28;20387;-59
2022/01/21 01:02:55;;;;;;;0.80;0.30;;;;;;;-148.16;100.00;58328.31;5090820;28;20036;-59
2022/01/21 01:05:41;;;;;;;2.08;0.32;;;;;;;-148.16;100.00;58328.31;5110112;28;20048;-59
2022/01/21 01:08:27;;;;;;;1.92;0.30;;;;;;;-148.16;100.00;58328.31;5081687;28;20043;-60
2022/01/21 01:11:19;;;;;;;1.75;0.40;;;;;;;-148.16;100.00;58328.31;5089934;28;20040;-59
2022/01/21 01:20:13;;;;;;;1.38;0.30;;;;;;;-148.16;100.00;58328.31;5093970;28;20048;-58
2022/01/21 01:23:08;;;;;;;1.65;0.35;;;;;;;-148.16;100.00;58328.31;5094395;28;20044;-59
2022/01/21 01:28:58;;;;;;;0.60;0.38;;;;;;;-148.16;100.00;58328.31;5094608;28;20089;-59
2022/01/21 01:31:44;;;;;;;1.75;0.30;;;;;;;-148.16;100.00;58328.31;5094749;28;20048;-59
2022/01/21 01:34:30;;;;;;;0.68;0.30;;;;;;;-148.16;100.00;58328.31;5093541;28;20048;-60
2022/01/21 01:52:14;;;;;;;1.60;0.28;;;;;;;-148.16;100.00;58328.31;5094012;28;20040;-59
2022/01/21 01:54:59;;;;;;;1.98;0.45;;;;;;;-148.16;100.00;58328.31;5093905;28;20475;-58
2022/01/21 01:57:45;;;;;;;1.23;0.32;;;;;;;-148.16;100.00;58328.31;5098633;28;20056;-58
2022/01/21 02:00:32;;;;;;;1.38;0.55;;;;;;;-148.16;100.00;58328.31;5099788;28;20471;-59
2022/01/21 02:03:18;;;;;;;1.63;0.40;;;;;;;-148.16;100.00;58328.31;5094790;28;20036;-59
2022/01/21 02:06:04;;;;;;;2.00;0.50;;;;;;;-148.16;100.00;58328.31;5094434;28;20048;-58
2022/01/21 02:08:50;;;;;;;2.55;0.60;;;;;;;-148.16;100.00;58328.31;5095028;28;20044;-58
2022/01/21 02:11:36;;;;;;;1.27;0.70;;;;;;;-148.16;100.00;58328.31;5095018;28;20048;-58
2022/01/21 02:14:28;;;;;;;1.70;0.50;;;;;;;-148.16;100.00;58328.31;5094485;28;20051;-60
2022/01/21 02:23:05;;;;;;;2.63;0.40;;;;;;;-148.16;100.00;58328.31;5086870;28;20479;-59
2022/01/21 02:25:51;;;;;;;2.03;0.50;;;;;;;-148.16;100.00;58328.31;5053229;28;20041;-58
2022/01/21 02:28:38;;;;;;;0.70;0.30;;;;;;;-148.16;100.00;58328.31;5053312;28;20400;-58
2022/01/21 02:31:24;;;;;;;3.20;0.85;;;;;;;-148.16;100.00;58328.31;5053338;28;20037;-59
2022/01/21 02:34:10;;;;;;;1.85;0.47;;;;;;;-148.16;100.00;58328.31;5072713;28;20041;-59
2022/01/21 02:36:55;;;;;;;4.20;0.60;;;;;;;-148.16;100.00;58328.31;5054260;28;20052;-59
2022/01/21 02:39:42;;;;;;;1.27;0.70;;;;;;;-148.16;100.00;58328.31;5054383;28;20037;-59
2022/01/21 02:42:28;;;;;;;1.77;0.40;;;;;;;-148.16;100.00;58328.31;5054070;28;20040;-59
2022/01/21 02:45:15;;;;;;;2.47;0.57;;;;;;;-148.16;100.00;58328.31;5053000;28;20045;-59
2022/01/21 02:48:01;;;;;;;1.77;0.55;;;;;;;-148.16;100.00;58328.31;5052752;28;20115;-59
2022/01/21 02:50:48;;;;;;;2.35;0.50;;;;;;;-148.16;100.00;58328.31;5068144;28;20048;-58
2022/01/21 02:56:36;;;;;;;3.42;1.10;;;;;;;-148.16;100.00;58328.31;5086577;28;20494;-59
2022/01/21 02:59:22;;;;;;;1.83;0.57;;;;;;;-148.16;100.00;58328.31;5073857;28;20048;-59
2022/01/21 03:02:08;;;;;;;3.65;0.50;;;;;;;-148.16;100.00;58328.31;5072817;28;20049;-59
2022/01/21 03:05:04;;;;;;;4.63;0.60;;;;;;;-148.16;100.00;58328.31;5073317;28;20052;-59
2022/01/21 03:07:51;;;;;;;1.23;0.30;;;;;;;-148.16;100.00;58328.31;5072448;28;20488;-58
2022/01/21 03:10:36;;;;;;;3.58;0.73;;;;;;;-148.16;100.00;58328.31;5052708;28;20048;-58
2022/01/21 03:13:23;;;;;;;5.03;0.82;;;;;;;-148.16;100.00;58328.31;5053309;28;20481;-59
2022/01/21 03:16:10;;;;;;;2.05;0.60;;;;;;;-148.16;100.00;58328.31;5052195;28;20053;-60
2022/01/21 03:18:56;;;;;;;1.10;0.40;;;;;;;-148.16;100.00;58328.31;5052273;28;20056;-59
2022/01/21 03:21:41;;;;;;;3.80;0.70;;;;;;;-148.16;100.00;58328.31;5052365;28;20041;-59
2022/01/21 03:24:27;;;;;;;1.40;0.45;;;;;;;-148.16;100.00;58328.31;5051462;28;20056;-59
2022/01/21 03:27:13;;;;;;;3.72;0.57;;;;;;;-148.16;100.00;58328.31;5051736;28;20428;-59
2022/01/21 03:29:59;;;;;;;2.00;0.50;;;;;;;-148.16;100.00;58328.31;5051042;28;20049;-59
2022/01/21 03:32:51;;;;;;;1.23;0.50;;;;;;;-148.16;100.00;58328.31;5065092;28;20052;-60
2022/01/21 03:35:37;;;;;;;2.58;0.63;;;;;;;-148.16;100.00;58328.31;5070716;28;20052;-58
2022/01/21 03:38:27;;;;;;;3.42;0.40;;;;;;;-148.16;100.00;58328.31;5059013;28;20056;-59
2022/01/21 03:41:13;;;;;;;2.28;0.55;;;;;;;-148.16;100.00;58328.31;5070442;28;20044;-59
2022/01/21 03:43:59;;;;;;;1.52;0.50;;;;;;;-148.16;100.00;58328.31;5082538;28;20048;-58
2022/01/21 03:46:47;;;;;;;1.85;0.50;;;;;;;-148.16;100.00;58328.31;5090285;28;20482;-59
2022/01/21 03:49:41;;;;;;;3.28;0.60;;;;;;;-148.16;100.00;58328.31;5105307;28;20048;-59
2022/01/21 03:52:27;;;;;;;1.05;0.50;;;;;;;-148.16;100.00;58328.31;5080048;28;20052;-60
2022/01/21 03:55:13;;;;;;;3.05;0.70;;;;;;;-148.16;100.00;58328.31;5071518;28;20040;-58
2022/01/21 03:58:01;;;;;;;1.45;0.30;;;;;;;-148.16;100.00;58328.31;5070353;28;20053;-58
2022/01/21 04:00:52;;;;;;;2.17;0.30;;;;;;;-148.16;100.00;58328.31;5072057;28;20147;-59
2022/01/21 04:03:39;;;;;;;0.85;0.43;;;;;;;-148.16;100.00;58328.31;5086246;28;20056;-59
2022/01/21 04:06:24;;;;;;;4.20;0.52;;;;;;;-148.16;100.00;58328.31;5073859;28;20052;-59
2022/01/21 04:09:11;;;;;;;2.13;0.55;;;;;;;-148.16;100.00;58328.31;5072703;28;20036;-59
2022/01/21 04:11:58;;;;;;;4.60;0.52;;;;;;;-148.16;100.00;58328.31;5083090;28;20052;-59
2022/01/21 04:14:44;;;;;;;0.85;0.40;;;;;;;-148.16;100.00;58328.31;5078517;28;20036;-59
2022/01/21 04:17:30;;;;;;;2.03;0.40;;;;;;;-148.16;100.00;58328.31;5078936;28;20039;-59
2022/01/21 04:20:17;;;;;;;2.33;0.40;;;;;;;-148.16;100.00;58328.31;5081523;28;20048;-60
2022/01/21 04:23:05;;;;;;;2.38;0.50;;;;;;;-148.16;100.00;58328.31;5092330;28;20036;-59
2022/01/21 04:25:52;;;;;;;0.82;0.40;;;;;;;-148.16;100.00;58328.31;5091608;28;20405;-59
2022/01/21 04:28:37;;;;;;;1.95;0.32;;;;;;;-148.16;100.00;58328.31;5082624;28;20083;-59
2022/01/21 04:31:25;;;;;;;1.65;0.50;;;;;;;-148.16;100.00;58328.31;5090445;28;20040;-59
2022/01/21 04:34:11;;;;;;;2.33;0.20;;;;;;;-148.16;100.00;58328.31;5083337;28;20051;-59
2022/01/21 04:36:59;;;;;;;3.72;0.43;;;;;;;-148.16;100.00;58328.31;5105406;28;20052;-59
2022/01/21 04:39:56;;;;;;;;;;;;;;;-148.16;100.00;58328.31;5084384;28;20399;-59
2022/01/21 04:48:55;;;;;;;2.00;0.20;;;;;;;-148.16;100.00;58328.31;5096924;28;20036;-59
2022/01/21 04:52:01;;;;;;;1.05;0.38;;;;;;;-148.16;100.00;58328.31;5105337;28;20439;-59
2022/01/21 04:54:47;;;;;;;3.85;0.30;;;;;;;-148.16;100.00;58328.31;5091116;28;20052;-59
2022/01/21 04:57:33;;;;;;;1.40;0.50;;;;;;;-148.16;100.00;58328.31;5082257;28;20052;-60
2022/01/21 05:00:18;;;;;;;2.28;0.30;;;;;;;-148.16;100.00;58328.31;5071868;28;20052;-59
2022/01/21 05:03:04;;;;;;;0.80;0.20;;;;;;;-148.16;100.00;58328.31;5090510;28;20056;-59
2022/01/21 05:05:50;;;;;;;1.30;0.30;;;;;;;-148.16;100.00;58328.31;5090147;28;20503;-59
2022/01/21 05:11:25;;;;;;;2.33;0.45;;;;;;;-148.16;100.00;58328.31;5089832;28;20043;-60
2022/01/21 05:14:22;;;;;;;1.58;0.13;;;;;;;-148.16;100.00;58328.31;5090709;28;20048;-60
2022/01/21 05:17:16;;;;;;;4.47;0.22;;;;;;;-148.16;100.00;58328.31;5090873;28;20487;-59
2022/01/21 05:20:02;;;;;;;0.95;0.15;;;;;;;-148.16;100.00;58328.31;5076561;28;20056;-59
2022/01/21 05:23:14;;;;;;;0.82;0.30;;;;;;;-148.16;100.00;58328.31;5090962;28;20040;-59
2022/01/21 05:26:01;;;;;;;0.52;0.30;;;;;;;-148.16;100.00;58328.31;5090674;28;20052;-59
2022/01/21 05:28:47;;;;;;;1.38;0.40;;;;;;;-148.16;100.00;58328.31;5090602;28;20052;-59
2022/01/21 05:31:53;;;;;;;3.17;0.55;;;;;;;-148.16;100.00;58328.31;5081253;28;20040;-59
2022/01/21 05:35:03;;;;;;;3.63;0.30;;;;;;;-148.16;100.00;58328.31;5072872;28;20044;-58
2022/01/21 05:38:07;;;;;;;2.63;0.88;;;;;;;-148.16;100.00;58328.31;5078001;28;20060;-59
2022/01/21 05:41:25;;;;;;;1.38;0.40;;;;;;;-148.16;100.00;58328.31;5062112;28;20048;-59
2022/01/21 05:47:38;;;;;;;4.50;0.32;;;;;;;-148.16;100.00;58328.31;5075351;28;20048;-58
2022/01/21 05:51:03;;;;;;;2.42;0.60;;;;;;;-148.16;100.00;58328.31;5048004;28;20040;-59
2022/01/21 05:54:09;;;;;;;1.30;0.40;;;;;;;-148.16;100.00;58328.31;5053868;28;20537;-58
2022/01/21 05:57:31;;;;;;;2.53;0.35;;;;;;;-148.16;100.00;58328.31;5028002;28;20396;-58
2022/01/21 06:00:16;;;;;;;1.08;0.40;;;;;;;-148.16;100.00;58328.31;5083843;28;20048;-58
2022/01/21 06:03:05;;;;;;;1.95;0.30;;;;;;;-148.16;100.00;58328.31;5073371;28;20045;-59
2022/01/21 06:05:51;;;;;;;7.60;0.80;;;;;;;-148.16;100.00;58328.31;5079143;28;20048;-57
2022/01/21 06:08:38;;;;;;;2.40;0.40;;;;;;;-148.16;100.00;58328.31;5073295;28;20089;-58
2022/01/21 06:11:23;;;;;;;2.35;0.35;;;;;;;-148.16;100.00;58328.31;5072703;28;20147;-60
2022/01/21 06:14:09;;;;;;;1.35;0.50;;;;;;;-148.16;100.00;58328.31;5073088;28;20048;-56
2022/01/21 06:16:55;;;;;;;2.15;0.60;;;;;;;-148.16;100.00;58328.31;5072289;28;20045;-60
2022/01/21 06:19:41;;;;;;;4.22;0.68;;;;;;;-148.16;100.00;58328.31;5072012;28;20624;-61
2022/01/21 06:22:27;;;;;;;4.22;0.68;;;;;;;-148.16;100.00;58328.31;5076794;28;20056;-61
2022/01/21 06:25:13;;;;;;;3.72;0.60;;;;;;;-148.16;100.00;58328.31;5077867;28;20044;-65
2022/01/21 06:27:59;;;;;;;0.88;0.30;;;;;;;-148.16;100.00;58328.31;5086892;28;20044;-60
2022/01/21 06:30:45;;;;;;;1.75;0.50;;;;;;;-148.16;100.00;58328.31;5068945;28;20396;-60
2022/01/21 06:33:31;;;;;;;4.93;0.65;;;;;;;-148.16;100.00;58328.31;5072873;28;20044;-59
2022/01/21 06:36:17;;;;;;;2.95;0.57;;;;;;;-148.16;100.00;58328.31;5076388;28;20056;-60
2022/01/21 06:39:03;;;;;;;5.22;0.60;;;;;;;-148.16;100.00;58328.31;5073828;28;20056;-61
2022/01/21 06:41:50;;;;;;;1.58;0.50;;;;;;;-148.16;100.00;58328.31;5087644;28;20491;-59
2022/01/21 06:44:36;;;;;;;5.15;0.82;;;;;;;-148.16;100.00;58328.31;5088885;28;20040;-59
2022/01/21 06:47:22;;;;;;;3.78;0.60;;;;;;;-148.16;100.00;58328.31;5098506;28;20044;-59
2022/01/21 06:50:08;;;;;;;10.45;3.42;;;;;;;-148.16;100.00;58328.31;5078213;28;20041;-58
2022/01/21 06:52:54;;;;;;;7.18;1.65;;;;;;;-148.16;100.00;58328.31;5073789;28;20049;-61
2022/01/21 06:55:40;;;;;;;4.65;0.90;;;;;;;-148.16;100.00;58328.31;5086088;28;20083;-60
2022/01/21 06:58:26;;;;;;;8.38;1.63;;;;;;;-148.16;100.00;58328.31;5090399;28;20040;-60
2022/01/21 07:01:12;;;;;;;1.75;0.63;;;;;;;-148.16;100.00;58328.31;5084268;28;20404;-61
2022/01/21 07:03:57;;;;;;;2.80;0.80;;;;;;;-148.16;100.00;58328.31;5093946;28;20074;-58
2022/01/21 07:06:43;;;;;;;3.58;0.75;;;;;;;-148.16;100.00;58328.31;5093386;28;20044;-60
2022/01/21 07:09:29;;;;;;;3.03;0.90;;;;;;;-148.16;100.00;58328.31;5093849;28;20044;-59
2022/01/21 07:12:15;;;;;;;9.48;0.77;;;;;;;-148.16;100.00;58328.31;5082292;28;20056;-59
2022/01/21 07:15:01;;;;;;;5.50;0.85;;;;;;;-148.16;100.00;58328.31;5093818;28;20044;-59
2022/01/21 07:17:49;;;;;;;3.22;0.90;;;;;;;-148.16;100.00;58328.31;5092598;28;20044;-60
2022/01/21 07:20:35;;;;;;;1.90;0.60;;;;;;;-148.16;100.00;58328.31;5092797;28;20052;-63
2022/01/21 07:23:24;;;;;;;7.45;0.98;;;;;;;-148.16;100.00;58328.31;5091380;28;20539;-63
2022/01/21 07:26:14;;;;;;;1.75;0.90;;;;;;;-148.16;100.00;58328.31;5071187;28;20388;-56
2022/01/21 07:29:01;;;;;;;1.83;0.52;;;;;;;-148.16;100.00;58328.31;5084160;28;20045;-55
2022/01/21 07:31:51;;;;;;;3.60;0.57;;;;;;;-148.16;100.00;58328.31;5093614;28;20044;-57
2022/01/21 07:34:37;;;;;;;1.83;0.60;;;;;;;-148.16;100.00;58328.31;5093592;28;20044;-57
2022/01/21 07:37:22;;;;;;;5.88;0.82;;;;;;;-148.16;100.00;58328.31;5093168;28;20048;-58
2022/01/21 07:40:09;;;;;;;1.65;0.47;;;;;;;-148.16;100.00;58328.31;5085372;28;20092;-55
2022/01/21 07:42:54;;;;;;;2.35;0.73;;;;;;;-148.16;100.00;58328.31;5092371;28;20044;-56
2022/01/21 07:45:40;;;;;;;3.03;0.80;;;;;;;-148.16;100.00;58328.31;5085202;28;20032;-53
2022/01/21 07:48:26;;;;;;;1.25;0.43;;;;;;;-148.16;100.00;58328.31;5093511;28;20040;-53
2022/01/21 07:51:12;;;;;;;4.32;0.68;;;;;;;-148.16;100.00;58328.31;5093692;28;20048;-56
2022/01/21 07:53:57;;;;;;;1.60;0.60;;;;;;;-148.16;100.00;58328.31;5093272;28;20044;-54
2022/01/21 07:56:43;;;;;;;3.35;0.50;;;;;;;-148.16;100.00;58328.31;5099368;28;20044;-52
2022/01/21 07:59:29;;;;;;;1.60;0.60;;;;;;;-148.16;100.00;58328.31;5098159;28;20488;-53
2022/01/21 08:02:15;;;;;;;3.28;0.50;;;;;;;-148.16;100.00;58328.31;5098553;28;20040;-54
2022/01/21 08:05:05;;;;;;;1.83;0.40;;;;;;;-148.16;100.00;58328.31;5092921;28;20044;-53
2022/01/21 08:07:50;;;;;;;6.80;0.70;;;;;;;-148.16;100.00;58328.31;5093155;28;20418;-49
2022/01/21 08:10:36;;;;;;;2.65;0.60;;;;;;;-148.16;100.00;58328.31;5093214;28;20036;-52
2022/01/21 08:13:22;;;;;;;2.28;0.47;;;;;;;-148.16;100.00;58328.31;5093228;28;20048;-52
2022/01/21 08:16:08;;;;;;;3.80;0.70;;;;;;;-148.16;100.00;58328.31;5093097;28;20487;-51
2022/01/21 08:18:54;;;;;;;1.85;0.60;;;;;;;-148.16;100.00;58328.31;5092698;28;20482;-55
2022/01/21 08:21:41;;;;;;;3.22;0.50;;;;;;;-148.16;100.00;58328.31;5097511;28;20088;-52
2022/01/21 08:24:26;;;;;;;3.15;0.70;;;;;;;-148.16;100.00;58328.31;5092099;28;20044;-55
2022/01/21 08:27:12;;;;;;;3.80;0.77;;;;;;;-148.16;100.00;58328.31;5093003;28;20483;-52
2022/01/21 08:29:58;;;;;;;2.13;0.30;;;;;;;-148.16;100.00;58328.31;5085416;28;20044;-50
2022/01/21 08:32:44;;;;;;;3.25;0.50;;;;;;;-148.16;100.00;58328.31;5088930;28;20044;-48
2022/01/21 08:35:32;;;;;;;4.10;0.57;;;;;;;-148.16;100.00;58328.31;5085710;28;20052;-56
2022/01/21 08:38:18;;;;;;;12.75;0.90;;;;;;;-148.16;100.00;58328.31;5083509;28;20041;-61
2022/01/21 08:41:05;;;;;;;1.80;0.45;;;;;;;-148.16;100.00;58328.31;5096817;28;20036;-61
2022/01/21 08:43:50;;;;;;;4.40;0.60;;;;;;;-148.16;100.00;58328.31;5080260;28;20500;-59
2022/01/21 08:46:36;;;;;;;7.55;1.15;;;;;;;-148.16;100.00;58328.31;5085116;28;20044;-59
2022/01/21 08:49:22;;;;;;;1.85;0.55;;;;;;;-148.16;100.00;58328.31;5081761;28;20045;-60
2022/01/21 08:52:18;;;;;;;3.78;0.70;;;;;;;-148.16;100.00;58328.31;5087999;28;20040;-59
2022/01/21 08:55:07;;;;;;;1.83;0.70;;;;;;;-148.16;100.00;58328.31;5073089;28;20480;-58
2022/01/21 08:57:53;;;;;;;3.63;0.90;;;;;;;-148.16;100.00;58328.31;5087624;28;20036;-59
2022/01/21 09:00:39;;;;;;;1.58;0.63;;;;;;;-148.16;100.00;58328.31;5086771;28;20052;-60
2022/01/21 09:03:24;;;;;;;2.72;0.57;;;;;;;-148.16;100.00;58328.31;5080137;28;20488;-60
2022/01/21 09:06:12;;;;;;;3.03;0.90;;;;;;;-148.16;100.00;58328.31;5076600;28;20406;-59
2022/01/21 09:08:58;;;;;;;3.45;0.50;;;;;;;-148.16;100.00;58328.31;5087570;28;20052;-60
2022/01/21 09:11:44;;;;;;;1.75;0.63;;;;;;;-148.16;100.00;58328.31;5091175;28;20040;-59
2022/01/21 09:14:30;;;;;;;2.03;0.50;;;;;;;-148.16;100.00;58328.31;5091452;28;20704;-60
2022/01/21 09:17:17;;;;;;;3.60;0.63;;;;;;;-148.16;100.00;58328.31;5082992;28;20041;-59
2022/01/21 09:20:04;;;;;;;1.73;0.40;;;;;;;-148.16;100.00;58328.31;5070445;28;20431;-56
2022/01/21 09:22:50;;;;;;;0.43;0.20;;;;;;;-148.16;100.00;58328.31;5070831;28;20057;-55
2022/01/21 09:25:36;;;;;;;5.82;1.05;;;;;;;-148.16;100.00;58328.31;5061848;28;20403;-55
2022/01/21 09:28:23;;;;;;;2.47;0.68;;;;;;;-148.16;100.00;58328.31;5070085;28;20048;-54
2022/01/21 09:31:09;;;;;;;2.22;0.50;;;;;;;-148.16;100.00;58328.31;5076778;28;20036;-60
2022/01/21 09:33:55;;;;;;;4.20;0.80;;;;;;;-148.16;100.00;58328.31;5087522;28;20039;-59
2022/01/21 09:36:42;;;;;;;4.30;0.90;;;;;;;-148.16;100.00;58328.31;5092515;28;20406;-58
2022/01/21 09:39:29;;;;;;;2.40;0.75;;;;;;;-148.16;100.00;58328.31;5090065;28;20056;-60
2022/01/21 09:42:15;;;;;;;1.77;0.30;;;;;;;-148.16;100.00;58328.31;5094584;28;20040;-58
2022/01/21 09:45:08;;;;;;;3.55;0.63;;;;;;;-148.16;100.00;58328.31;5074405;28;20041;-59
2022/01/21 09:47:55;;;;;;;3.63;0.52;;;;;;;-148.16;100.00;58328.31;5075092;28;20044;-59
2022/01/21 09:50:42;;;;;;;3.58;0.65;;;;;;;-148.16;100.00;58328.31;5079894;28;20044;-60
2022/01/21 09:53:33;;;;;;;3.05;0.45;;;;;;;-148.16;100.00;58328.31;5075133;28;20472;-60
2022/01/21 09:56:19;;;;;;;1.75;0.40;;;;;;;-148.16;100.00;58328.31;5075158;28;20120;-58
2022/01/21 09:59:06;;;;;;;1.98;0.77;;;;;;;-148.16;100.00;58328.31;5073911;28;20044;-59
2022/01/21 10:01:59;;;;;;;4.18;0.60;;;;;;;-148.16;100.00;58328.31;5074545;28;20044;-60
2022/01/21 10:04:49;;;;;;;4.97;1.13;;;;;;;-148.16;100.00;58328.31;5074836;28;20053;-61
2022/01/21 10:07:38;;;;;;;3.47;0.93;;;;;;;-148.16;100.00;58328.31;5080844;28;20507;-56
2022/01/21 10:10:24;;;;;;;1.08;0.57;;;;;;;-148.16;100.00;58328.31;5092997;28;20047;-59
2022/01/21 10:13:14;;;;;;;4.18;0.75;;;;;;;-148.16;100.00;58328.31;5074765;28;20040;-57
2022/01/21 10:16:02;;;;;;;2.30;0.68;;;;;;;-148.16;100.00;58328.31;5074393;28;20049;-59
2022/01/21 10:19:00;;;;;;;2.85;0.77;;;;;;;-148.16;100.00;58328.31;5074816;28;20044;-54
2022/01/21 10:21:46;;;;;;;3.53;0.55;;;;;;;-148.16;100.00;58328.31;5089545;28;20048;-54
2022/01/21 10:24:35;;;;;;;3.08;0.35;;;;;;;-148.16;100.00;58328.31;5095003;28;20044;-56
2022/01/21 10:27:32;;;;;;;1.70;0.52;;;;;;;-148.16;100.00;58328.31;5094339;28;20035;-55
2022/01/21 10:30:25;;;;;;;2.38;0.55;;;;;;;-148.16;100.00;58328.31;5095194;28;20052;-53
2022/01/21 10:33:23;;;;;;;3.35;0.55;;;;;;;-148.16;100.00;58328.31;5094905;28;20048;-52
2022/01/21 10:36:27;;;;;;;1.02;0.50;;;;;;;-148.16;100.00;58328.31;5094522;28;20052;-53
2022/01/21 10:39:19;;;;;;;4.22;0.88;;;;;;;-148.16;100.00;58328.31;5095065;28;20052;-53
2022/01/21 10:42:05;;;;;;;2.35;0.40;;;;;;;-148.16;100.00;58328.31;5094696;28;20047;-50
2022/01/21 10:44:50;;;;;;;3.75;0.60;;;;;;;-148.16;100.00;58328.31;5094652;28;20048;-55
2022/01/21 10:47:47;;;;;;;1.67;0.30;;;;;;;-148.16;100.00;58328.31;5094358;28;20040;-51
2022/01/21 10:50:33;;;;;;;2.78;0.50;;;;;;;-148.16;100.00;58328.31;5093456;28;20040;-53
2022/01/21 10:53:30;;;;;;;1.35;0.28;;;;;;;-148.16;100.00;58328.31;5067851;28;20488;-53
2022/01/21 10:56:18;;;;;;;1.58;0.30;;;;;;;-148.16;100.00;58328.31;5054112;28;20052;-53
2022/01/21 10:59:04;;;;;;;2.20;0.43;;;;;;;-148.16;100.00;58328.31;5057698;28;20045;-55
2022/01/21 11:01:59;;;;;;;2.63;0.30;;;;;;;-148.16;100.00;58328.31;5052674;28;20053;-51
2022/01/21 11:04:45;;;;;;;1.92;0.60;;;;;;;-148.16;100.00;58328.31;5058594;28;20049;-54
2022/01/21 11:08:11;;;;;;;2.08;0.40;;;;;;;-148.16;100.00;58328.31;5052486;28;20048;-48
2022/01/21 11:10:57;;;;;;;2.67;0.40;;;;;;;-148.16;100.00;58328.31;5035807;28;20100;-54
2022/01/21 11:13:43;;;;;;;1.00;0.30;;;;;;;-148.16;100.00;58328.31;5051723;28;20397;-53
2022/01/21 11:16:34;;;;;;;3.33;0.55;;;;;;;-148.16;100.00;58328.31;5052539;28;20045;-53
2022/01/21 11:19:28;;;;;;;1.45;0.60;;;;;;;-148.16;100.00;58328.31;5057786;28;20052;-53
2022/01/21 11:22:15;;;;;;;3.20;0.40;;;;;;;-148.16;100.00;58328.31;5058329;28;20044;-53
2022/01/21 11:25:01;;;;;;;7.75;0.60;;;;;;;-148.16;100.00;58328.31;5052411;28;20053;-53
2022/01/21 11:28:05;;;;;;;0.88;0.30;;;;;;;-148.16;100.00;58328.31;5052412;28;20049;-49
2022/01/21 11:30:53;;;;;;;3.25;0.40;;;;;;;-148.16;100.00;58328.31;5057038;28;20037;-50
2022/01/21 11:33:38;;;;;;;2.70;0.73;;;;;;;-148.16;100.00;58328.31;5052231;28;20053;-52
2022/01/21 11:36:25;;;;;;;1.05;0.28;;;;;;;-148.16;100.00;58328.31;5054468;28;20396;-48
2022/01/21 11:39:12;;;;;;;1.58;0.50;;;;;;;-148.16;100.00;58328.31;5052014;28;20049;-51
2022/01/21 11:42:00;;;;;;;4.22;0.40;;;;;;;-148.16;100.00;58328.31;5052295;28;20045;-49
2022/01/21 11:44:52;;;;;;;7.60;0.50;;;;;;;-148.16;100.00;58328.31;5083851;28;20040;-57
2022/01/21 11:47:50;;;;;;;;;;;;;;;-148.16;100.00;58328.31;5091935;28;20116;-50
2022/01/21 11:50:35;;;;;;;2.88;0.63;;;;;;;-148.16;100.00;58328.31;5091640;28;19920;-53
2022/01/21 11:53:45;;;;;;;1.70;0.43;;;;;;;-148.16;100.00;58328.31;5091762;28;20044;-50
2022/01/21 11:56:46;;;;;;;4.03;0.73;;;;;;;-148.16;100.00;58328.31;5091690;28;20044;-50
2022/01/21 11:59:41;;;;;;;5.35;0.60;;;;;;;-148.16;100.00;58328.31;5091707;28;20052;-53
2022/01/21 12:02:31;;;;;;;0.98;0.25;;;;;;;-148.16;100.00;58328.31;5092902;28;20048;-53
2022/01/21 12:05:25;;;;;;;4.93;0.45;;;;;;;-148.16;100.00;58328.31;5093080;28;20044;-51
2022/01/21 12:08:11;;;;;;;1.95;0.40;;;;;;;-148.16;100.00;58328.31;5092743;28;20052;-49
2022/01/21 12:10:57;;;;;;;1.98;0.40;;;;;;;-148.16;100.00;58328.31;5092459;28;20036;-49
2022/01/21 12:13:43;;;;;;;2.60;0.63;;;;;;;-148.16;100.00;58328.31;5092419;28;20394;-53
2022/01/21 12:16:51;;;;;;;1.58;0.30;;;;;;;-148.16;100.00;58328.31;5091725;28;20051;-53
2022/01/21 12:19:40;;;;;;;1.00;0.30;;;;;;;-148.16;100.00;58328.31;5092566;28;20044;-52
2022/01/21 12:22:25;;;;;;;1.10;0.20;;;;;;;-148.16;100.00;58328.31;5083169;28;20040;-48
2022/01/21 12:25:13;;;;;;;3.03;0.30;;;;;;;-148.16;100.00;58328.31;5092302;28;20249;-53
2022/01/21 12:28:20;;;;;;;1.75;0.45;;;;;;;-148.16;100.00;58328.31;5092543;28;20036;-54
2022/01/21 12:31:07;;;;;;;8.27;0.50;;;;;;;-148.16;100.00;58328.31;5091814;28;20044;-52
2022/01/21 12:34:15;;;;;;;1.20;0.40;;;;;;;-148.16;100.00;58328.31;5092116;28;20051;-52
2022/01/21 12:37:07;;;;;;;1.65;0.30;;;;;;;-148.16;100.00;58328.31;5092260;28;20048;-52
2022/01/21 12:39:53;;;;;;;1.65;0.73;;;;;;;-148.16;100.00;58328.31;5092362;28;20044;-52
2022/01/21 12:42:39;;;;;;;2.50;1.02;;;;;;;-148.16;100.00;58328.31;5091330;28;20395;-50
2022/01/21 12:45:25;;;;;;;2.78;0.55;;;;;;;-148.16;100.00;58328.31;5092030;28;20040;-51
2022/01/21 12:48:34;;;;;;;1.30;0.40;;;;;;;-148.16;100.00;58328.31;5104435;28;20472;-51
2022/01/21 12:51:57;;;;;;;2.45;0.38;;;;;;;-148.16;100.00;58328.31;5089502;28;20047;-54
2022/01/21 12:57:48;;;;;;;1.63;0.28;;;;;;;-148.16;100.00;58328.31;5089189;28;20044;-53
2022/01/21 13:00:36;;;;;;;1.33;0.40;;;;;;;-148.16;100.00;58328.31;5096678;28;20048;-51
2022/01/21 13:03:35;;;;;;;1.88;0.40;;;;;;;-148.16;100.00;58328.31;5094950;28;20044;-52
2022/01/21 13:06:45;;;;;;;2.30;0.40;;;;;;;-148.16;100.00;58328.31;5090123;28;20135;-50
2022/01/21 13:10:03;;;;;;;4.03;0.52;;;;;;;-148.16;100.00;58328.31;5092581;28;20150;-51
2022/01/21 13:15:57;;;;;;;3.70;0.40;;;;;;;-148.16;100.00;58328.31;5095977;28;20048;-53
2022/01/21 13:18:43;;;;;;;2.58;0.50;;;;;;;-148.16;100.00;58328.31;5096322;28;20048;-51
2022/01/21 13:21:29;;;;;;;2.13;0.70;;;;;;;-148.16;100.00;58328.31;5109378;28;20056;-52
2022/01/21 13:24:26;;;;;;;2.95;0.50;;;;;;;-148.16;100.00;58328.31;5095870;28;20040;-51
2022/01/21 13:27:12;;;;;;;1.50;0.55;;;;;;;-148.16;100.00;58328.31;5095027;28;20410;-55
2022/01/21 13:30:05;;;;;;;2.05;0.50;;;;;;;-148.16;100.00;58328.31;5094888;28;20364;-50
2022/01/21 13:33:13;;;;;;;1.08;0.35;;;;;;;-148.16;100.00;58328.31;5094606;28;20044;-51
2022/01/21 13:35:59;;;;;;;4.40;0.60;;;;;;;-148.16;100.00;58328.31;5093495;28;20063;-50
2022/01/21 13:38:45;;;;;;;0.98;0.17;;;;;;;-148.16;100.00;58328.31;5094613;28;20403;-50
2022/01/21 13:41:31;;;;;;;2.03;0.30;;;;;;;-148.16;100.00;58328.31;5094348;28;20047;-53
2022/01/21 13:44:38;;;;;;;1.92;0.50;;;;;;;-148.16;100.00;58328.31;5094522;28;20051;-52
2022/01/21 13:47:36;;;;;;;2.85;0.45;;;;;;;-148.16;100.00;58328.31;5094388;28;20399;-50
2022/01/21 13:50:24;;;;;;;1.70;0.20;;;;;;;-148.16;100.00;58328.31;5094516;28;20040;-49
2022/01/21 13:53:10;;;;;;;1.98;0.38;;;;;;;-148.16;100.00;58328.31;5094569;28;20044;-49